Time;durP1;ratioP1;P1;durP2;ratioP2;P2;SDS_P1;SDS_P2;PMS_P1;PMS_P2;Temp;Humidity;BMP_temperature;BMP_pressure;BME280_temperature;BME280_humidity;BME280_pressure;Samples;Min_cycle;Max_cycle;Signal;HPM_P1;HPM_P2
2023/10/09 00:01:09;;;;;;;;;;;17.10;74.90;;;;;;5006376;28;19937;-66
2023/10/09 00:03:37;;;;;;;;;;;17.10;74.90;;;;;;5005947;28;19984;-66
2023/10/09 00:06:04;;;;;;;;;;;17.10;75.70;;;;;;5005982;28;20036;-65
2023/10/09 00:08:32;;;;;;;;;;;17.10;74.90;;;;;;5006395;28;20503;-65
2023/10/09 00:11:13;;;;;;;;;;;17.10;75.00;;;;;;5005180;28;19929;-66
2023/10/09 00:13:48;;;;;;;;;;;17.00;74.70;;;;;;5005970;28;19971;-66
2023/10/09 00:16:23;;;;;;;;;;;17.00;74.70;;;;;;5003642;28;19929;-66
2023/10/09 00:18:53;;;;;;;;;;;17.00;74.60;;;;;;5003648;28;19929;-65
2023/10/09 00:21:23;;;;;;;;;;;17.00;74.50;;;;;;5006750;28;19995;-66
2023/10/09 00:23:54;;;;;;;;;;;17.00;74.40;;;;;;5002447;28;19933;-65
2023/10/09 00:26:21;;;;;;;;;;;17.00;74.40;;;;;;5004978;28;19979;-65
2023/10/09 00:28:47;;;;;;;;;;;17.00;74.30;;;;;;5002997;28;19984;-65
2023/10/09 00:31:15;;;;;;;;;;;17.00;74.30;;;;;;5003429;28;19933;-66
2023/10/09 00:33:42;;;;;;;;;;;17.00;74.30;;;;;;5005523;28;20032;-65
2023/10/09 00:36:12;;;;;;;;;;;17.00;74.20;;;;;;5005207;28;20390;-66
2023/10/09 00:38:44;;;;;;;;;;;16.90;74.10;;;;;;5005823;28;19929;-65
2023/10/09 00:41:12;;;;;;;;;;;17.00;74.00;;;;;;5004935;28;20299;-66
2023/10/09 00:43:43;;;;;;;;;;;16.90;73.90;;;;;;5005331;28;19930;-65
2023/10/09 00:46:14;;;;;;;;;;;17.00;74.00;;;;;;5002742;28;20375;-65
2023/10/09 00:48:41;;;;;;;;;;;16.90;74.00;;;;;;5005696;28;19936;-66
2023/10/09 00:51:16;;;;;;;;;;;17.00;74.00;;;;;;5005375;28;20548;-66
2023/10/09 00:53:45;;;;;;;;;;;17.00;74.00;;;;;;5005249;28;19936;-65
2023/10/09 00:56:18;;;;;;;;;;;16.90;73.70;;;;;;5004512;28;19937;-66
2023/10/09 00:58:46;;;;;;;;;;;16.90;73.60;;;;;;5004836;28;20054;-66
2023/10/09 01:01:16;;;;;;;;;;;17.00;73.50;;;;;;5002415;28;20030;-64
2023/10/09 01:03:43;;;;;;;;;;;16.90;73.30;;;;;;5004553;28;20402;-66
2023/10/09 01:06:21;;;;;;;;;;;16.90;73.10;;;;;;5004930;28;19930;-66
2023/10/09 01:09:06;;;;;;;;;;;17.00;73.10;;;;;;5003477;28;19929;-65
2023/10/09 01:11:34;;;;;;;;;;;16.90;73.20;;;;;;5000329;28;20011;-65
2023/10/09 01:14:11;;;;;;;;;;;16.90;73.20;;;;;;5006198;28;20387;-65
2023/10/09 01:16:41;;;;;;;;;;;16.90;73.10;;;;;;5003332;28;20574;-66
2023/10/09 01:19:13;;;;;;;;;;;16.90;73.00;;;;;;5004038;28;19930;-65
2023/10/09 01:21:40;;;;;;;;;;;16.90;73.00;;;;;;5005189;28;20595;-66
2023/10/09 01:24:08;;;;;;;;;;;17.00;73.00;;;;;;5004200;28;19968;-65
2023/10/09 01:26:44;;;;;;;;;;;16.90;72.90;;;;;;5002674;28;20481;-65
2023/10/09 01:29:14;;;;;;;;;;;17.00;72.90;;;;;;5001100;28;20023;-66
2023/10/09 01:31:44;;;;;;;;;;;16.90;72.80;;;;;;5001579;28;19973;-66
2023/10/09 01:34:13;;;;;;;;;;;16.90;72.70;;;;;;4999396;28;19925;-66
2023/10/09 01:36:41;;;;;;;;;;;16.90;72.50;;;;;;5003603;28;20024;-65
2023/10/09 01:39:10;;;;;;;;;;;16.90;72.50;;;;;;5006501;28;20018;-65
2023/10/09 01:41:45;;;;;;;;;;;16.90;72.40;;;;;;5005312;28;19929;-65
2023/10/09 01:44:12;;;;;;;;;;;16.90;72.30;;;;;;5007372;28;19959;-66
2023/10/09 01:46:39;;;;;;;;;;;16.90;72.40;;;;;;5000904;28;19929;-66
2023/10/09 01:49:17;;;;;;;;;;;16.90;72.40;;;;;;5005241;28;19989;-66
2023/10/09 01:51:44;;;;;;;;;;;16.90;72.40;;;;;;5005853;28;19936;-66
2023/10/09 01:54:27;;;;;;;;;;;16.90;72.40;;;;;;5004939;28;19933;-65
2023/10/09 01:56:56;;;;;;;;;;;16.90;72.40;;;;;;5001596;28;19929;-65
2023/10/09 01:59:22;;;;;;;;;;;16.90;72.50;;;;;;5007004;28;19929;-65
2023/10/09 02:01:49;;;;;;;;;;;16.90;72.60;;;;;;5004730;28;19943;-65
2023/10/09 02:04:19;;;;;;;;;;;16.90;72.70;;;;;;5003991;28;19929;-67
2023/10/09 02:06:50;;;;;;;;;;;16.90;72.70;;;;;;5004023;28;20032;-65
2023/10/09 02:09:22;;;;;;;;;;;16.90;72.80;;;;;;5004748;28;19941;-66
2023/10/09 02:11:51;;;;;;;;;;;16.90;72.80;;;;;;5000958;28;19934;-66
2023/10/09 02:14:19;;;;;;;;;;;16.90;72.90;;;;;;5003808;28;19984;-66
2023/10/09 02:17:02;;;;;;;;;;;16.90;72.90;;;;;;4998862;28;20512;-66
2023/10/09 02:19:31;;;;;;;;;;;16.90;72.80;;;;;;5004341;28;19930;-65
2023/10/09 02:22:00;;;;;;;;;;;16.90;72.90;;;;;;5007592;28;19987;-65
2023/10/09 02:24:41;;;;;;;;;;;16.90;72.90;;;;;;5008471;28;19929;-66
2023/10/09 02:27:08;;;;;;;;;;;16.90;72.80;;;;;;5007407;28;19929;-65
2023/10/09 02:29:38;;;;;;;;;;;16.90;72.80;;;;;;5008292;28;19940;-66
2023/10/09 02:32:14;;;;;;;;;;;16.80;72.70;;;;;;5004727;28;19930;-66
2023/10/09 02:34:41;;;;;;;;;;;16.80;72.70;;;;;;5007315;28;20288;-65
2023/10/09 02:37:12;;;;;;;;;;;16.80;72.50;;;;;;5012854;28;19941;-66
2023/10/09 02:39:47;;;;;;;;;;;16.90;72.50;;;;;;5007360;28;19929;-64
2023/10/09 02:42:23;;;;;;;;;;;16.80;72.50;;;;;;5004099;28;20403;-65
2023/10/09 02:44:51;;;;;;;;;;;16.90;72.40;;;;;;5008060;28;19992;-64
2023/10/09 02:47:20;;;;;;;;;;;16.80;72.20;;;;;;5004136;28;20027;-65
2023/10/09 02:49:48;;;;;;;;;;;16.80;72.10;;;;;;5007996;28;20004;-66
2023/10/09 02:52:18;;;;;;;;;;;16.90;72.20;;;;;;5003465;28;20450;-65
2023/10/09 02:54:47;;;;;;;;;;;16.80;72.00;;;;;;5006775;28;19934;-66
2023/10/09 02:57:21;;;;;;;;;;;16.80;72.00;;;;;;5007347;28;20043;-64
2023/10/09 02:59:51;;;;;;;;;;;16.80;72.00;;;;;;5011397;28;20560;-65
2023/10/09 03:02:18;;;;;;;;;;;16.80;72.00;;;;;;5004509;28;19929;-66
2023/10/09 03:04:44;;;;;;;;;;;16.80;72.00;;;;;;5007486;28;20338;-65
2023/10/09 03:07:13;;;;;;;;;;;16.80;72.00;;;;;;5007069;28;19936;-65
2023/10/09 03:09:40;;;;;;;;;;;16.90;72.10;;;;;;5007494;28;20020;-66
2023/10/09 03:12:09;;;;;;;;;;;16.80;71.90;;;;;;5007931;28;19930;-66
2023/10/09 03:14:38;;;;;;;;;;;16.80;72.00;;;;;;5008038;28;20414;-66
2023/10/09 03:17:04;;;;;;;;;;;16.80;72.00;;;;;;5001116;28;20012;-66
2023/10/09 03:19:33;;;;;;;;;;;16.80;72.80;;;;;;5007402;28;19930;-65
2023/10/09 03:22:00;;;;;;;;;;;16.80;72.10;;;;;;5007828;28;19929;-66
2023/10/09 03:24:27;;;;;;;;;;;16.80;72.10;;;;;;5005537;28;19936;-67
2023/10/09 03:26:55;;;;;;;;;;;16.80;72.20;;;;;;5006531;28;19925;-66
2023/10/09 03:29:23;;;;;;;;;;;16.80;72.20;;;;;;5003868;28;19933;-66
2023/10/09 03:31:50;;;;;;;;;;;16.80;72.30;;;;;;5003700;28;19937;-65
2023/10/09 03:34:18;;;;;;;;;;;16.80;72.30;;;;;;5006306;28;19929;-66
2023/10/09 03:36:44;;;;;;;;;;;16.80;72.40;;;;;;5006557;28;19929;-65
2023/10/09 03:39:24;;;;;;;;;;;16.90;72.70;;;;;;5004654;28;19930;-66
2023/10/09 03:41:51;;;;;;;;;;;16.80;72.70;;;;;;5007492;28;20013;-66
2023/10/09 03:44:18;;;;;;;;;;;16.80;72.80;;;;;;5009652;28;20037;-65
2023/10/09 03:46:46;;;;;;;;;;;16.80;72.90;;;;;;5004128;28;20011;-66
2023/10/09 03:49:15;;;;;;;;;;;16.80;73.60;;;;;;5005383;28;19937;-66
2023/10/09 03:51:42;;;;;;;;;;;16.80;73.00;;;;;;5007376;28;19933;-66
2023/10/09 03:54:09;;;;;;;;;;;16.80;73.00;;;;;;5004722;28;19929;-66
2023/10/09 03:56:36;;;;;;;;;;;16.80;73.10;;;;;;5005346;28;20411;-66
2023/10/09 03:59:04;;;;;;;;;;;16.80;73.30;;;;;;5006182;28;19937;-65
2023/10/09 04:01:37;;;;;;;;;;;16.80;73.20;;;;;;5004043;28;19929;-66
2023/10/09 04:04:10;;;;;;;;;;;16.70;73.30;;;;;;5004664;28;20087;-63
2023/10/09 04:06:37;;;;;;;;;;;16.80;73.50;;;;;;5014380;28;19929;-66
2023/10/09 04:09:26;;;;;;;;;;;16.70;73.40;;;;;;5007626;28;19930;-65
2023/10/09 04:12:13;;;;;;;;;;;16.70;73.40;;;;;;5004033;28;19929;-65
2023/10/09 04:14:48;;;;;;;;;;;16.70;73.40;;;;;;5008682;28;19971;-66
2023/10/09 04:22:39;;;;;;;;;;;16.70;73.60;;;;;;5008415;28;20027;-66
2023/10/09 04:25:07;;;;;;;;;;;16.70;73.70;;;;;;5002762;28;19933;-66
2023/10/09 04:27:37;;;;;;;;;;;16.70;73.80;;;;;;5008237;28;19926;-65
2023/10/09 04:30:07;;;;;;;;;;;16.60;73.80;;;;;;5005572;28;19937;-65
2023/10/09 04:32:34;;;;;;;;;;;16.70;74.00;;;;;;5005428;28;19936;-66
2023/10/09 04:37:44;;;;;;;;;;;16.60;74.20;;;;;;5005202;28;19940;-65
2023/10/09 04:40:40;;;;;;;;;;;16.60;74.20;;;;;;5002971;28;20380;-66
2023/10/09 04:42:59;;;;;;;;;;;16.60;74.20;;;;;;5003903;28;19940;-65
2023/10/09 04:48:10;;;;;;;;;;;16.60;74.50;;;;;;5003997;28;20445;-65
2023/10/09 04:53:24;;;;;;;;;;;16.60;74.50;;;;;;4983655;28;19936;-65
2023/10/09 04:55:57;;;;;;;;;;;16.50;74.50;;;;;;5002852;28;19929;-66
2023/10/09 04:58:27;;;;;;;;;;;16.50;74.70;;;;;;5005327;28;19972;-65
2023/10/09 05:01:12;;;;;;;;;;;16.50;74.60;;;;;;4999591;28;19933;-65
2023/10/09 05:03:45;;;;;;;;;;;16.50;75.10;;;;;;4998787;28;19929;-65
2023/10/09 05:06:38;;;;;;;;;;;16.50;74.60;;;;;;5004954;28;20012;-65
2023/10/09 05:09:13;;;;;;;;;;;16.50;74.50;;;;;;5000643;28;20064;-65
2023/10/09 05:11:53;;;;;;;;;;;16.50;74.40;;;;;;5003689;28;19992;-66
2023/10/09 05:14:26;;;;;;;;;;;16.50;74.30;;;;;;5005402;28;19929;-66
2023/10/09 05:17:01;;;;;;;;;;;16.50;74.10;;;;;;5001802;28;20020;-66
2023/10/09 05:19:33;;;;;;;;;;;16.50;73.90;;;;;;5006460;28;19926;-66
2023/10/09 05:22:07;;;;;;;;;;;16.40;73.80;;;;;;5006247;28;20581;-66
2023/10/09 05:24:43;;;;;;;;;;;16.50;73.90;;;;;;5009338;28;20044;-66
2023/10/09 05:27:17;;;;;;;;;;;16.40;73.80;;;;;;5002517;28;19968;-65
2023/10/09 05:32:29;;;;;;;;;;;16.40;73.60;;;;;;4999823;28;20514;-66
2023/10/09 05:35:07;;;;;;;;;;;16.40;73.70;;;;;;5003986;28;19941;-66
2023/10/09 05:37:43;;;;;;;;;;;16.40;73.80;;;;;;5005165;28;19952;-65
2023/10/09 05:40:23;;;;;;;;;;;16.40;73.90;;;;;;5003116;28;19929;-66
2023/10/09 05:42:59;;;;;;;;;;;16.40;73.90;;;;;;5001702;28;19941;-65
2023/10/09 05:54:11;;;;;;;;;;;16.40;74.10;;;;;;5003370;28;19930;-65
2023/10/09 06:04:49;;;;;;;;;;;16.40;74.10;;;;;;5004245;28;20485;-66
2023/10/09 06:07:23;;;;;;;;;;;16.40;74.10;;;;;;5003213;28;19933;-66
2023/10/09 06:09:52;;;;;;;;;;;16.40;74.10;;;;;;4999712;28;21210;-66
2023/10/09 06:15:30;;;;;;;;;;;16.40;74.20;;;;;;5080743;27;19920;-65
2023/10/09 06:18:09;;;;;;;;;;;16.40;74.20;;;;;;5020830;28;20044;-66
2023/10/09 06:21:06;;;;;;;;;;;16.40;74.40;;;;;;5024007;28;19926;-66
2023/10/09 06:26:24;;;;;;;;;;;16.40;74.50;;;;;;5020851;28;19932;-66
2023/10/09 06:29:13;;;;;;;;;;;16.40;74.70;;;;;;5019819;28;20012;-66
2023/10/09 06:34:22;;;;;;;;;;;16.30;74.60;;;;;;5021796;28;20431;-64
2023/10/09 06:36:52;;;;;;;;;;;16.40;74.80;;;;;;5022298;28;19929;-65
2023/10/09 06:42:09;;;;;;;;;;;16.40;74.90;;;;;;5022485;28;19932;-66
2023/10/09 06:47:18;;;;;;;;;;;16.40;74.90;;;;;;5023558;28;20277;-66
2023/10/09 06:50:12;;;;;;;;;;;16.40;75.00;;;;;;5022938;28;20016;-66
2023/10/09 06:52:57;;;;;;;;;;;16.40;75.00;;;;;;5022009;28;19972;-66
2023/10/09 06:55:32;;;;;;;;;;;16.30;75.00;;;;;;5021694;28;19929;-65
2023/10/09 06:58:01;;;;;;;;;;;16.40;75.10;;;;;;5020383;28;19928;-66
2023/10/09 07:03:14;;;;;;;;;;;16.30;75.10;;;;;;5022031;28;19932;-66
2023/10/09 07:06:00;;;;;;;;;;;16.30;75.20;;;;;;5021001;28;19930;-66
2023/10/09 07:08:32;;;;;;;;;;;16.30;75.00;;;;;;5021111;28;19926;-65
2023/10/09 07:11:20;;;;;;;;;;;16.30;75.10;;;;;;5021514;28;19929;-66
2023/10/09 07:13:53;;;;;;;;;;;16.40;75.00;;;;;;5018860;28;19953;-65
2023/10/09 07:16:28;;;;;;;;;;;16.30;75.00;;;;;;5020075;28;20556;-65
2023/10/09 07:19:09;;;;;;;;;;;16.30;75.00;;;;;;5019350;28;20387;-66
2023/10/09 07:21:38;;;;;;;;;;;16.30;75.00;;;;;;5021557;28;20012;-65
2023/10/09 07:24:14;;;;;;;;;;;16.30;74.90;;;;;;5021756;28;19933;-66
2023/10/09 07:26:47;;;;;;;;;;;16.40;75.00;;;;;;5008805;28;19952;-66
2023/10/09 07:29:21;;;;;;;;;;;16.40;75.00;;;;;;5006498;28;20369;-66
2023/10/09 07:31:57;;;;;;;;;;;16.40;75.80;;;;;;5005991;28;20346;-65
2023/10/09 07:37:19;;;;;;;;;;;16.40;74.90;;;;;;5006162;28;19971;-65
2023/10/09 07:39:56;;;;;;;;;;;16.30;74.80;;;;;;5006695;28;19977;-66
2023/10/09 07:42:33;;;;;;;;;;;16.40;74.80;;;;;;5008126;28;19936;-66
2023/10/09 07:45:11;;;;;;;;;;;16.40;74.80;;;;;;5010873;28;20477;-64
2023/10/09 07:48:00;;;;;;;;;;;16.40;74.90;;;;;;5006737;28;19935;-64
2023/10/09 07:50:38;;;;;;;;;;;16.30;74.80;;;;;;5011230;28;19925;-65
2023/10/09 07:53:17;;;;;;;;;;;16.40;74.80;;;;;;5005794;28;20564;-66
2023/10/09 07:55:53;;;;;;;;;;;16.40;74.80;;;;;;5007077;28;19940;-66
2023/10/09 07:58:24;;;;;;;;;;;16.40;74.80;;;;;;5008775;28;19936;-66
2023/10/09 08:03:57;;;;;;;;;;;16.40;74.90;;;;;;5064468;28;19916;-67
2023/10/09 08:06:39;;;;;;;;;;;16.40;74.90;;;;;;5063867;28;21347;-65
2023/10/09 08:09:17;;;;;;;;;;;16.40;74.90;;;;;;5061451;28;19936;-63
2023/10/09 08:12:13;;;;;;;;;;;16.40;74.90;;;;;;5066476;28;19925;-65
2023/10/09 08:14:48;;;;;;;;;;;16.50;75.00;;;;;;5064726;28;20019;-66
2023/10/09 08:17:17;;;;;;;;;;;16.50;75.00;;;;;;5044183;28;19931;-66
2023/10/09 08:19:54;;;;;;;;;;;16.50;75.00;;;;;;5048605;28;19928;-65
2023/10/09 08:22:42;;;;;;;;;;;16.50;75.00;;;;;;5043404;28;19929;-66
2023/10/09 08:25:25;;;;;;;;;;;16.50;75.00;;;;;;5043531;28;19929;-66
2023/10/09 08:27:56;;;;;;;;;;;16.50;75.10;;;;;;5041727;28;19931;-65
2023/10/09 08:30:29;;;;;;;;;;;16.50;75.00;;;;;;5040133;28;20019;-64
2023/10/09 08:33:02;;;;;;;;;;;16.50;75.00;;;;;;5046495;28;20797;-66
2023/10/09 08:35:33;;;;;;;;;;;16.60;75.10;;;;;;5041870;28;19936;-66
2023/10/09 08:38:07;;;;;;;;;;;16.60;75.10;;;;;;5044417;28;19935;-66
2023/10/09 08:40:37;;;;;;;;;;;16.60;75.10;;;;;;5040584;28;19939;-65
2023/10/09 08:43:08;;;;;;;;;;;16.60;75.00;;;;;;5043025;28;20062;-66
2023/10/09 08:45:36;;;;;;;;;;;16.60;75.00;;;;;;5041329;28;19928;-65
2023/10/09 08:48:04;;;;;;;;;;;16.60;75.00;;;;;;5043634;28;20011;-66
2023/10/09 08:50:34;;;;;;;;;;;16.60;75.00;;;;;;5041795;28;20007;-66
2023/10/09 08:53:03;;;;;;;;;;;16.60;75.00;;;;;;5040795;28;19937;-66
2023/10/09 08:55:29;;;;;;;;;;;16.70;75.10;;;;;;5042271;28;19988;-66
2023/10/09 08:57:57;;;;;;;;;;;16.70;75.10;;;;;;5042557;28;19952;-66
2023/10/09 09:00:24;;;;;;;;;;;16.70;75.10;;;;;;5038101;28;19972;-65
2023/10/09 09:02:52;;;;;;;;;;;16.70;75.10;;;;;;5056391;28;20007;-66
2023/10/09 09:05:20;;;;;;;;;;;16.70;75.00;;;;;;5059353;28;19928;-66
2023/10/09 09:07:48;;;;;;;;;;;16.70;75.00;;;;;;5063924;28;19940;-65
2023/10/09 09:10:18;;;;;;;;;;;16.80;75.00;;;;;;5059762;28;19935;-66
2023/10/09 09:12:45;;;;;;;;;;;16.80;75.00;;;;;;5066338;28;19937;-66
2023/10/09 09:15:18;;;;;;;;;;;16.80;74.90;;;;;;5045701;28;19936;-66
2023/10/09 09:17:45;;;;;;;;;;;16.80;74.90;;;;;;5048856;28;19951;-66
2023/10/09 09:20:23;;;;;;;;;;;16.80;74.90;;;;;;5048645;28;19932;-65
2023/10/09 09:22:56;;;;;;;;;;;16.90;75.00;;;;;;5047022;28;19933;-65
2023/10/09 09:25:24;;;;;;;;;;;16.90;75.00;;;;;;5048619;28;19951;-66
2023/10/09 09:27:52;;;;;;;;;;;16.90;75.00;;;;;;5051875;28;19935;-66
2023/10/09 09:30:26;;;;;;;;;;;17.00;74.90;;;;;;5045750;28;20480;-66
2023/10/09 09:35:33;;;;;;;;;;;17.00;74.90;;;;;;5020836;28;20366;-65
2023/10/09 09:38:04;;;;;;;;;;;17.00;74.90;;;;;;5022840;28;21158;-65
2023/10/09 09:40:32;;;;;;;;;;;17.00;74.80;;;;;;5017764;28;19928;-66
2023/10/09 09:43:05;;;;;;;;;;;17.10;74.90;;;;;;5025777;28;20342;-66
2023/10/09 09:45:32;;;;;;;;;;;17.10;74.90;;;;;;5023653;28;20022;-66
2023/10/09 09:48:05;;;;;;;;;;;17.10;74.90;;;;;;5028948;28;19937;-65
2023/10/09 09:50:32;;;;;;;;;;;17.10;74.80;;;;;;5021455;28;19929;-65
2023/10/09 09:53:00;;;;;;;;;;;17.20;75.00;;;;;;5018182;28;20395;-66
2023/10/09 09:55:31;;;;;;;;;;;17.20;74.90;;;;;;5027179;28;19932;-66
2023/10/09 09:57:58;;;;;;;;;;;17.30;75.00;;;;;;5022138;28;20574;-66
2023/10/09 10:00:30;;;;;;;;;;;17.30;75.00;;;;;;5022320;28;19944;-65
2023/10/09 10:02:59;;;;;;;;;;;17.30;74.90;;;;;;5022644;28;19929;-66
2023/10/09 10:05:29;;;;;;;;;;;17.40;74.90;;;;;;5021807;28;20596;-65
2023/10/09 10:07:56;;;;;;;;;;;17.40;74.80;;;;;;5027066;28;19928;-66
2023/10/09 10:10:47;;;;;;;;;;;17.40;74.70;;;;;;5022489;28;19929;-65
2023/10/09 10:13:23;;;;;;;;;;;17.40;74.70;;;;;;5025683;28;20013;-66
2023/10/09 10:16:02;;;;;;;;;;;17.50;74.80;;;;;;5023857;28;20450;-65
2023/10/09 10:18:33;;;;;;;;;;;17.40;74.70;;;;;;5021120;28;20339;-66
2023/10/09 10:21:15;;;;;;;;;;;17.50;74.80;;;;;;5020765;28;19966;-66
2023/10/09 10:23:46;;;;;;;;;;;17.50;74.80;;;;;;5026543;28;20455;-66
2023/10/09 10:26:26;;;;;;;;;;;17.50;74.70;;;;;;5026152;28;19929;-65
2023/10/09 10:29:22;;;;;;;;;;;17.60;74.80;;;;;;5025981;28;19943;-65
2023/10/09 10:32:00;;;;;;;;;;;17.50;74.80;;;;;;5020005;28;19987;-66
2023/10/09 10:34:27;;;;;;;;;;;17.60;74.80;;;;;;5025678;28;20391;-66
2023/10/09 10:36:59;;;;;;;;;;;17.60;74.90;;;;;;5018150;28;19936;-66
2023/10/09 10:45:35;;;;;;;;;;;17.70;74.90;;;;;;5098778;27;19920;-63
2023/10/09 10:48:07;;;;;;;;;;;17.70;74.90;;;;;;5086873;28;19938;-65
2023/10/09 10:50:36;;;;;;;;;;;17.70;74.90;;;;;;5090407;28;19932;-65
2023/10/09 10:53:13;;;;;;;;;;;17.80;75.00;;;;;;5086012;28;19935;-68
2023/10/09 10:55:48;;;;;;;;;;;17.80;75.00;;;;;;5084517;28;19929;-65
2023/10/09 10:58:23;;;;;;;;;;;17.80;74.90;;;;;;5086091;28;20417;-66
2023/10/09 11:01:14;;;;;;;;;;;17.80;75.00;;;;;;5087744;27;20397;-65
2023/10/09 11:06:38;;;;;;;;;;;17.90;75.00;;;;;;5083373;27;20648;-66
2023/10/09 11:09:21;;;;;;;;;;;17.90;75.00;;;;;;5063698;28;20012;-66
2023/10/09 11:11:48;;;;;;;;;;;18.00;75.10;;;;;;5064813;28;19982;-66
2023/10/09 11:14:15;;;;;;;;;;;18.00;75.40;;;;;;5063947;28;20008;-64
2023/10/09 11:16:47;;;;;;;;;;;18.00;75.40;;;;;;5035195;28;19929;-64
2023/10/09 11:19:22;;;;;;;;;;;18.00;75.30;;;;;;5021032;28;19970;-67
2023/10/09 11:21:58;;;;;;;;;;;18.00;75.30;;;;;;5021371;28;19929;-65
2023/10/09 11:24:25;;;;;;;;;;;18.10;75.30;;;;;;5020983;28;20400;-66
2023/10/09 11:26:55;;;;;;;;;;;18.00;75.50;;;;;;5024564;28;19933;-65
2023/10/09 11:29:29;;;;;;;;;;;18.10;75.50;;;;;;5026531;28;19933;-65
2023/10/09 11:31:59;;;;;;;;;;;18.10;75.50;;;;;;5016566;28;20081;-65
2023/10/09 11:34:31;;;;;;;;;;;18.10;75.30;;;;;;5024188;28;20018;-65
2023/10/09 11:37:02;;;;;;;;;;;18.20;75.40;;;;;;5018979;28;20466;-66
2023/10/09 11:39:34;;;;;;;;;;;18.20;75.30;;;;;;5021040;28;19995;-67
2023/10/09 11:42:04;;;;;;;;;;;18.20;75.40;;;;;;5026239;28;19933;-65
2023/10/09 11:44:40;;;;;;;;;;;18.20;75.30;;;;;;5020533;28;19929;-66
2023/10/09 11:47:32;;;;;;;;;;;18.30;75.20;;;;;;5022443;28;20311;-66
2023/10/09 11:50:17;;;;;;;;;;;18.30;75.20;;;;;;5023116;28;19929;-67
2023/10/09 11:53:09;;;;;;;;;;;18.40;75.40;;;;;;5023314;28;20454;-65
2023/10/09 11:55:35;;;;;;;;;;;18.40;75.30;;;;;;5023289;28;19934;-66
2023/10/09 11:58:04;;;;;;;;;;;18.40;75.10;;;;;;5022047;28;19932;-66
2023/10/09 12:00:42;;;;;;;;;;;18.50;75.00;;;;;;5022154;28;19933;-66
2023/10/09 12:03:09;;;;;;;;;;;18.50;74.90;;;;;;5017948;28;19968;-66
2023/10/09 12:05:35;;;;;;;;;;;18.60;74.90;;;;;;5021194;28;19936;-66
2023/10/09 12:08:08;;;;;;;;;;;18.70;74.80;;;;;;5015152;28;19930;-67
2023/10/09 12:10:38;;;;;;;;;;;18.80;74.50;;;;;;5019122;28;20442;-66
2023/10/09 12:13:05;;;;;;;;;;;18.90;74.10;;;;;;5022450;28;20414;-66
2023/10/09 12:15:37;;;;;;;;;;;19.00;73.90;;;;;;5017426;28;19930;-66
2023/10/09 12:18:04;;;;;;;;;;;19.10;73.70;;;;;;5006568;28;19937;-66
2023/10/09 12:20:31;;;;;;;;;;;19.10;73.40;;;;;;5005863;28;20536;-66
2023/10/09 12:22:58;;;;;;;;;;;19.10;73.10;;;;;;5004085;28;20429;-66
2023/10/09 12:25:31;;;;;;;;;;;19.20;72.70;;;;;;5007261;28;19930;-65
2023/10/09 12:27:57;;;;;;;;;;;19.30;72.50;;;;;;5006932;28;19933;-66
2023/10/09 12:30:27;;;;;;;;;;;19.30;72.20;;;;;;5003368;28;19929;-65
2023/10/09 12:32:54;;;;;;;;;;;19.30;72.30;;;;;;5008103;28;20363;-66
2023/10/09 12:35:21;;;;;;;;;;;19.30;71.90;;;;;;5005550;28;19925;-66
2023/10/09 12:37:49;;;;;;;;;;;19.30;72.10;;;;;;5005871;28;19933;-66
2023/10/09 12:40:23;;;;;;;;;;;19.40;71.90;;;;;;5006334;28;19968;-67
2023/10/09 12:42:55;;;;;;;;;;;19.40;71.80;;;;;;5006549;28;20068;-66
2023/10/09 12:45:26;;;;;;;;;;;19.40;71.10;;;;;;5005093;28;19937;-66
2023/10/09 12:47:53;;;;;;;;;;;19.50;70.80;;;;;;5006675;28;20007;-66
2023/10/09 12:50:27;;;;;;;;;;;19.50;71.10;;;;;;5009313;28;19935;-66
2023/10/09 12:52:54;;;;;;;;;;;19.60;70.90;;;;;;5007130;28;19933;-66
2023/10/09 12:55:21;;;;;;;;;;;19.60;70.70;;;;;;5006291;28;19930;-66
2023/10/09 12:57:51;;;;;;;;;;;19.70;70.70;;;;;;5007795;28;19933;-66
2023/10/09 13:00:25;;;;;;;;;;;19.70;69.50;;;;;;5008336;28;19940;-66
2023/10/09 13:02:51;;;;;;;;;;;19.80;69.20;;;;;;5006312;28;19929;-67
2023/10/09 13:05:26;;;;;;;;;;;19.90;69.30;;;;;;5008105;28;19940;-65
2023/10/09 13:07:52;;;;;;;;;;;20.00;67.50;;;;;;5008244;28;19929;-66
2023/10/09 13:10:19;;;;;;;;;;;20.10;67.60;;;;;;5007303;28;19936;-66
2023/10/09 13:12:45;;;;;;;;;;;20.20;66.60;;;;;;5007074;28;19929;-66
2023/10/09 13:15:13;;;;;;;;;;;20.20;65.30;;;;;;5005501;28;19952;-66
2023/10/09 13:17:42;;;;;;;;;;;20.30;65.20;;;;;;5008465;28;20406;-67
2023/10/09 13:20:13;;;;;;;;;;;20.40;65.40;;;;;;5004495;28;20002;-66
2023/10/09 13:22:40;;;;;;;;;;;20.50;64.70;;;;;;5006351;28;20019;-66
2023/10/09 13:25:14;;;;;;;;;;;20.50;64.30;;;;;;5000789;28;19955;-66
2023/10/09 13:27:40;;;;;;;;;;;20.60;64.10;;;;;;5007280;28;20019;-66
2023/10/09 13:30:09;;;;;;;;;;;20.70;64.30;;;;;;5005608;28;19937;-66
2023/10/09 13:32:36;;;;;;;;;;;20.70;64.10;;;;;;5007401;28;19968;-66
2023/10/09 13:35:05;;;;;;;;;;;20.80;64.50;;;;;;5006493;28;19940;-67
2023/10/09 13:37:36;;;;;;;;;;;20.90;64.50;;;;;;5006355;28;20006;-67
2023/10/09 13:40:09;;;;;;;;;;;20.90;62.90;;;;;;5001449;28;19930;-67
2023/10/09 13:42:36;;;;;;;;;;;21.00;63.10;;;;;;5003851;28;19952;-75
2023/10/09 13:45:06;;;;;;;;;;;21.00;63.00;;;;;;4996877;28;19944;-74
2023/10/09 13:47:33;;;;;;;;;;;21.10;63.60;;;;;;4997641;28;19933;-74
2023/10/09 13:50:00;;;;;;;;;;;21.10;63.30;;;;;;5000985;28;19933;-76
2023/10/09 13:52:28;;;;;;;;;;;21.10;62.70;;;;;;5000092;28;19937;-76
2023/10/09 13:54:55;;;;;;;;;;;21.20;62.40;;;;;;5001193;28;19929;-76
2023/10/09 13:57:22;;;;;;;;;;;21.20;63.20;;;;;;5000940;28;19984;-76
2023/10/09 13:59:49;;;;;;;;;;;21.20;63.00;;;;;;4996866;28;19984;-77
2023/10/09 14:02:18;;;;;;;;;;;21.20;62.60;;;;;;4999561;28;19965;-76
2023/10/09 14:04:45;;;;;;;;;;;21.20;63.10;;;;;;4994846;28;19929;-75
2023/10/09 14:07:16;;;;;;;;;;;21.20;63.00;;;;;;4996976;28;20987;-75
2023/10/09 14:09:55;;;;;;;;;;;21.20;63.10;;;;;;5002166;28;19932;-75
2023/10/09 14:12:24;;;;;;;;;;;21.10;63.10;;;;;;5000040;28;19952;-75
2023/10/09 14:14:53;;;;;;;;;;;21.20;63.50;;;;;;4998360;28;20284;-75
2023/10/09 14:17:23;;;;;;;;;;;21.20;63.70;;;;;;4999104;28;20702;-77
2023/10/09 14:19:51;;;;;;;;;;;21.20;63.20;;;;;;5002497;28;19925;-79
2023/10/09 14:22:17;;;;;;;;;;;21.10;63.00;;;;;;5003175;28;19930;-77
2023/10/09 14:24:46;;;;;;;;;;;21.20;63.40;;;;;;4996336;28;20493;-76
2023/10/09 14:27:17;;;;;;;;;;;21.20;63.00;;;;;;4999281;28;19935;-75
2023/10/09 14:29:44;;;;;;;;;;;21.20;63.80;;;;;;4998339;28;19934;-76
2023/10/09 14:32:13;;;;;;;;;;;21.20;63.90;;;;;;5001720;28;20019;-75
2023/10/09 14:34:43;;;;;;;;;;;21.20;64.00;;;;;;4999911;28;19929;-77
2023/10/09 14:37:11;;;;;;;;;;;21.20;64.10;;;;;;5001304;28;19937;-77
2023/10/09 14:39:38;;;;;;;;;;;21.20;63.80;;;;;;4997399;28;19934;-77
2023/10/09 14:42:09;;;;;;;;;;;21.20;64.20;;;;;;5001288;28;19929;-78
2023/10/09 14:44:37;;;;;;;;;;;21.20;64.30;;;;;;4999210;28;19999;-78
2023/10/09 14:47:05;;;;;;;;;;;21.20;64.10;;;;;;4997908;28;19929;-76
2023/10/09 14:49:34;;;;;;;;;;;21.30;64.20;;;;;;4998717;28;19929;-76
2023/10/09 14:52:01;;;;;;;;;;;21.30;64.50;;;;;;4999071;28;20730;-76
2023/10/09 14:54:28;;;;;;;;;;;21.30;64.60;;;;;;5002570;28;20411;-75
2023/10/09 14:56:55;;;;;;;;;;;21.30;64.80;;;;;;5000681;28;19940;-77
2023/10/09 14:59:25;;;;;;;;;;;21.30;64.80;;;;;;5002137;28;19933;-76
2023/10/09 15:01:53;;;;;;;;;;;21.30;64.80;;;;;;5004944;28;19933;-75
2023/10/09 15:04:20;;;;;;;;;;;21.30;65.00;;;;;;5017006;28;19953;-75
2023/10/09 15:06:49;;;;;;;;;;;21.30;65.10;;;;;;5020581;28;19929;-76
2023/10/09 15:09:21;;;;;;;;;;;21.30;65.00;;;;;;5020178;28;19964;-75
2023/10/09 15:11:49;;;;;;;;;;;21.30;65.20;;;;;;5019513;28;20518;-76
2023/10/09 15:14:15;;;;;;;;;;;21.30;65.00;;;;;;5021145;28;20003;-75
2023/10/09 15:16:43;;;;;;;;;;;21.30;65.20;;;;;;5018541;28;19980;-75
2023/10/09 15:19:10;;;;;;;;;;;21.30;65.30;;;;;;5023122;28;19940;-75
2023/10/09 15:21:43;;;;;;;;;;;21.30;65.30;;;;;;5020190;28;20015;-77
2023/10/09 15:24:12;;;;;;;;;;;21.30;65.30;;;;;;5021484;28;20341;-78
2023/10/09 15:26:39;;;;;;;;;;;21.40;65.40;;;;;;5020916;28;19929;-75
2023/10/09 15:29:06;;;;;;;;;;;21.30;65.50;;;;;;5019281;28;20319;-75
2023/10/09 15:31:34;;;;;;;;;;;21.40;65.70;;;;;;5017487;28;19940;-75
2023/10/09 15:34:02;;;;;;;;;;;21.40;65.90;;;;;;5019495;28;19929;-75
2023/10/09 15:36:31;;;;;;;;;;;21.40;65.90;;;;;;5019965;28;20025;-75
2023/10/09 15:38:59;;;;;;;;;;;21.40;66.10;;;;;;5015154;28;19933;-74
2023/10/09 15:41:30;;;;;;;;;;;21.30;66.10;;;;;;5017383;28;20708;-74
2023/10/09 15:43:57;;;;;;;;;;;21.40;66.30;;;;;;5017332;28;19936;-74
2023/10/09 15:46:23;;;;;;;;;;;21.30;66.30;;;;;;5016395;28;20418;-75
2023/10/09 15:48:51;;;;;;;;;;;21.30;66.20;;;;;;5014583;28;19933;-75